Time,TemperatureF,DewpointF,PressureIn,WindDirection,WindDirectionDegrees,WindSpeedMPH,WindSpeedGustMPH,Humidity,HourlyPrecipIn,Conditions,Clouds,dailyrainin,SoftwareType,DateUTC
2013-04-15 00:00:00,31.8,25.7,30.20,WNW,292,0.0,0.0,78,0.00,CLR,,0.00,WeatherDisplay:10.37,2013-04-15 04:00:00,
2013-04-15 00:01:00,31.8,25.7,30.20,WNW,292,0.0,1.1,78,0.00,CLR,,0.00,WeatherDisplay:10.37,2013-04-15 04:01:00,
2013-04-15 00:03:00,31.8,25.7,30.20,WNW,292,0.0,1.1,78,0.00,CLR,,0.00,WeatherDisplay:10.37,2013-04-15 04:03:00,
2013-04-15 00:08:00,31.8,25.7,30.20,WNW,292,0.0,1.1,78,0.00,CLR,,0.00,WeatherDisplay:10.37,2013-04-15 04:08:00,
2013-04-15 00:13:00,32.0,26.2,30.20,WNW,292,0.1,1.1,79,0.00,CLR,,0.00,WeatherDisplay:10.37,2013-04-15 04:13:00,
2013-04-15 00:18:00,31.8,26.0,30.20,WSW,248,0.3,1.1,79,0.00,CLR,,0.00,WeatherDisplay:10.37,2013-04-15 04:18:00,
2013-04-15 00:23:00,31.6,25.9,30.20,WSW,248,0.3,0.0,79,0.00,CLR,,0.00,WeatherDisplay:10.37,2013-04-15 04:23:00,
2013-04-15 00:28:00,31.5,25.7,30.20,WSW,248,0.1,0.0,79,0.00,CLR,,0.00,WeatherDisplay:10.37,2013-04-15 04:28:00,
2013-04-15 00:33:00,31.5,25.7,30.20,WSW,248,0.0,0.0,79,0.00,CLR,,0.00,WeatherDisplay:10.37,2013-04-15 04:33:00,
2013-04-15 00:38:00,31.5,25.7,30.20,WSW,248,0.0,0.0,79,0.00,CLR,,0.00,WeatherDisplay:10.37,2013-04-15 04:38:00,
2013-04-15 00:43:00,31.3,25.5,30.20,West,270,0.0,0.0,79,0.00,CLR,,0.00,WeatherDisplay:10.37,2013-04-15 04:43:00,
2013-04-15 00:48:00,31.1,25.3,30.20,West,270,0.1,0.0,79,0.00,CLR,,0.00,WeatherDisplay:10.37,2013-04-15 04:48:00,
2013-04-15 00:53:00,31.1,25.3,30.20,West,270,0.1,0.0,79,0.00,CLR,,0.00,WeatherDisplay:10.37,2013-04-15 04:53:00,
2013-04-15 00:58:00,31.1,25.7,30.20,West,270,0.0,0.0,80,0.00,CLR,,0.00,WeatherDisplay:10.37,2013-04-15 04:58:00,
2013-04-15 01:03:00,31.1,25.7,30.20,West,270,0.0,0.0,80,0.00,CLR,,0.00,WeatherDisplay:10.37,2013-04-15 05:03:00,
2013-04-15 01:08:00,30.7,25.3,30.20,West,270,0.0,0.0,80,0.00,CLR,,0.00,WeatherDisplay:10.37,2013-04-15 05:08:00,
2013-04-15 01:13:00,31.1,25.7,30.20,West,270,0.0,0.0,80,0.00,CLR,,0.00,WeatherDisplay:10.37,2013-04-15 05:13:00,
2013-04-15 01:18:00,31.1,25.7,30.20,West,270,0.0,0.0,80,0.00,CLR,,0.00,WeatherDisplay:10.37,2013-04-15 05:18:00,
2013-04-15 01:23:00,31.1,25.7,30.20,West,270,0.0,0.0,80,0.00,CLR,,0.00,WeatherDisplay:10.37,2013-04-15 05:23:00,
2013-04-15 01:28:00,30.7,25.3,30.20,West,270,0.0,0.0,80,0.00,CLR,,0.00,WeatherDisplay:10.37,2013-04-15 05:28:00,
2013-04-15 01:33:00,31.1,25.7,30.20,West,270,0.0,0.0,80,0.00,CLR,,0.00,WeatherDisplay:10.37,2013-04-15 05:33:00,
2013-04-15 01:38:00,31.1,25.7,30.21,West,270,0.0,0.0,80,0.00,CLR,,0.00,WeatherDisplay:10.37,2013-04-15 05:38:00,
2013-04-15 01:43:00,31.1,25.7,30.21,NW,315,0.0,0.0,80,0.00,CLR,,0.00,WeatherDisplay:10.37,2013-04-15 05:43:00,
2013-04-15 01:48:00,31.1,26.0,30.21,NW,315,0.0,0.0,81,0.00,CLR,,0.00,WeatherDisplay:10.37,2013-04-15 05:48:00,
2013-04-15 01:53:00,30.7,25.3,30.21,ENE,68,0.0,0.0,80,0.00,CLR,,0.00,WeatherDisplay:10.37,2013-04-15 05:53:00,
2013-04-15 01:58:00,30.6,25.1,30.20,ENE,68,0.0,0.0,80,0.00,CLR,,0.00,WeatherDisplay:10.37,2013-04-15 05:58:00,
2013-04-15 02:03:00,30.7,25.6,30.20,West,270,0.0,0.0,81,0.00,CLR,,0.00,WeatherDisplay:10.37,2013-04-15 06:03:00,
2013-04-15 02:08:00,30.7,25.6,30.20,West,270,0.0,0.0,81,0.00,CLR,,0.00,WeatherDisplay:10.37,2013-04-15 06:08:00,
2013-04-15 02:13:00,30.6,25.4,30.20,West,270,0.0,0.0,81,0.00,CLR,,0.00,WeatherDisplay:10.37,2013-04-15 06:13:00,
2013-04-15 02:18:00,30.7,25.6,30.20,West,270,0.0,0.0,81,0.00,CLR,,0.00,WeatherDisplay:10.37,2013-04-15 06:18:00,
2013-04-15 02:23:00,30.4,25.2,30.20,West,270,0.0,0.0,81,0.00,CLR,,0.00,WeatherDisplay:10.37,2013-04-15 06:23:00,
2013-04-15 02:28:00,30.4,25.2,30.20,West,270,0.0,0.0,81,0.00,CLR,,0.00,WeatherDisplay:10.37,2013-04-15 06:28:00,
2013-04-15 02:34:00,30.4,25.2,30.20,West,270,0.0,0.0,81,0.00,CLR,,0.00,WeatherDisplay:10.37,2013-04-15 06:34:00,
2013-04-15 02:39:00,30.4,25.2,30.20,West,270,0.0,0.0,81,0.00,CLR,,0.00,WeatherDisplay:10.37,2013-04-15 06:39:00,
2013-04-15 02:44:00,30.4,25.2,30.20,West,270,0.0,0.0,81,0.00,CLR,,0.00,WeatherDisplay:10.37,2013-04-15 06:44:00,
2013-04-15 02:49:00,30.0,24.9,30.20,West,270,0.0,0.0,81,0.00,CLR,,0.00,WeatherDisplay:10.37,2013-04-15 06:49:00,
2013-04-15 02:54:00,30.0,24.9,30.20,West,270,0.0,0.0,81,0.00,CLR,,0.00,WeatherDisplay:10.37,2013-04-15 06:54:00,
2013-04-15 02:59:00,30.0,24.9,30.20,West,270,0.0,0.0,81,0.00,CLR,,0.00,WeatherDisplay:10.37,2013-04-15 06:59:00,
2013-04-15 03:04:00,30.0,24.9,30.20,West,270,0.0,0.0,81,0.00,CLR,,0.00,WeatherDisplay:10.37,2013-04-15 07:04:00,
2013-04-15 03:41:00,29.7,24.5,30.20,West,270,0.0,0.0,81,0.00,CLR,,0.00,WeatherDisplay:10.37,2013-04-15 07:41:00,
2013-04-15 03:42:00,29.7,24.5,30.20,West,270,0.0,0.0,81,0.00,CLR,,0.00,WeatherDisplay:10.37,2013-04-15 07:42:00,
2013-04-15 03:43:00,29.7,24.8,30.20,West,270,0.0,0.0,82,0.00,CLR,,0.00,WeatherDisplay:10.37,2013-04-15 07:43:00,
2013-04-15 03:47:00,29.7,24.8,30.20,West,270,0.0,0.0,82,0.00,CLR,,0.00,WeatherDisplay:10.37,2013-04-15 07:47:00,
2013-04-15 03:48:00,29.7,24.8,30.20,West,270,0.0,0.0,82,0.00,CLR,,0.00,WeatherDisplay:10.37,2013-04-15 07:48:00,
2013-04-15 03:50:00,29.7,24.8,30.20,West,270,0.0,0.0,82,0.00,CLR,,0.00,WeatherDisplay:10.37,2013-04-15 07:50:00,
2013-04-15 03:53:00,29.7,24.8,30.20,West,270,0.0,0.0,82,0.00,CLR,,0.00,WeatherDisplay:10.37,2013-04-15 07:53:00,
2013-04-15 03:58:00,29.7,24.8,30.22,West,270,0.0,0.0,82,0.00,CLR,,0.00,WeatherDisplay:10.37,2013-04-15 07:58:00,
2013-04-15 04:03:00,29.3,24.5,30.22,West,270,0.0,0.0,82,0.00,CLR,,0.00,WeatherDisplay:10.37,2013-04-15 08:03:00,
2013-04-15 04:08:00,29.3,24.5,30.22,West,270,0.0,0.0,82,0.00,CLR,,0.00,WeatherDisplay:10.37,2013-04-15 08:08:00,
2013-04-15 04:13:00,29.3,24.5,30.22,West,270,0.0,0.0,82,0.00,CLR,,0.00,WeatherDisplay:10.37,2013-04-15 08:13:00,
2013-04-15 04:19:00,29.3,24.5,30.22,West,270,0.0,0.0,82,0.00,CLR,,0.00,WeatherDisplay:10.37,2013-04-15 08:19:00,
2013-04-15 04:24:00,29.3,24.5,30.22,West,270,0.0,0.0,82,0.00,CLR,,0.00,WeatherDisplay:10.37,2013-04-15 08:24:00,
2013-04-15 04:29:00,29.3,24.5,30.22,West,270,0.0,0.0,82,0.00,CLR,,0.00,WeatherDisplay:10.37,2013-04-15 08:29:00,
2013-04-15 04:34:00,29.1,24.3,30.22,West,270,0.0,0.0,82,0.00,CLR,,0.00,WeatherDisplay:10.37,2013-04-15 08:34:00,
2013-04-15 04:37:00,29.1,24.3,30.22,West,270,0.0,0.0,82,0.00,CLR,,0.00,WeatherDisplay:10.37,2013-04-15 08:37:00,
2013-04-15 04:40:00,29.1,24.6,30.22,WNW,292,0.0,0.0,83,0.00,CLR,,0.00,WeatherDisplay:10.37,2013-04-15 08:40:00,
2013-04-15 04:42:00,29.3,24.8,30.22,WNW,292,0.0,0.0,83,0.00,CLR,,0.00,WeatherDisplay:10.37,2013-04-15 08:42:00,
2013-04-15 04:48:00,29.1,24.6,30.22,WNW,292,0.0,0.0,83,0.00,CLR,,0.00,WeatherDisplay:10.37,2013-04-15 08:48:00,
2013-04-15 04:51:00,29.3,24.8,30.22,WNW,292,0.0,0.0,83,0.00,CLR,,0.00,WeatherDisplay:10.37,2013-04-15 08:51:00,
2013-04-15 04:56:00,29.3,24.8,30.22,WNW,292,0.0,0.0,83,0.00,CLR,,0.00,WeatherDisplay:10.37,2013-04-15 08:56:00,
2013-04-15 04:57:00,29.3,24.8,30.23,WNW,292,0.0,0.0,83,0.00,CLR,,0.00,WeatherDisplay:10.37,2013-04-15 08:57:00,
2013-04-15 05:02:00,29.3,24.8,30.23,WNW,292,0.0,0.0,83,0.00,CLR,,0.00,WeatherDisplay:10.37,2013-04-15 09:02:00,
2013-04-15 05:07:00,29.3,24.8,30.23,WNW,292,0.0,0.0,83,0.00,CLR,,0.00,WeatherDisplay:10.37,2013-04-15 09:07:00,
2013-04-15 05:12:00,29.3,24.8,30.23,WNW,292,0.0,0.0,83,0.00,CLR,,0.00,WeatherDisplay:10.37,2013-04-15 09:12:00,
2013-04-15 05:17:00,29.1,24.6,30.23,WNW,292,0.0,0.0,83,0.00,CLR,,0.00,WeatherDisplay:10.37,2013-04-15 09:17:00,
2013-04-15 05:22:00,29.1,24.6,30.23,WNW,292,0.0,0.0,83,0.00,CLR,,0.00,WeatherDisplay:10.37,2013-04-15 09:22:00,
2013-04-15 05:28:00,29.1,24.6,30.23,WNW,292,0.0,0.0,83,0.00,CLR,,0.00,WeatherDisplay:10.37,2013-04-15 09:28:00,
2013-04-15 05:33:00,29.1,24.6,30.23,WNW,292,0.0,0.0,83,0.00,CLR,,0.00,WeatherDisplay:10.37,2013-04-15 09:33:00,
2013-04-15 05:38:00,29.1,24.6,30.24,WNW,292,0.0,0.0,83,0.00,CLR,,0.00,WeatherDisplay:10.37,2013-04-15 09:38:00,
2013-04-15 05:43:00,29.3,24.8,30.24,WNW,292,0.0,0.0,83,0.00,CLR,,0.00,WeatherDisplay:10.37,2013-04-15 09:43:00,
2013-04-15 05:48:00,29.3,24.8,30.24,WNW,292,0.0,0.0,83,0.00,CLR,,0.00,WeatherDisplay:10.37,2013-04-15 09:48:00,
2013-04-15 05:53:00,29.1,24.6,30.24,WNW,292,0.0,0.0,83,0.00,CLR,,0.00,WeatherDisplay:10.37,2013-04-15 09:53:00,
2013-04-15 05:58:00,28.9,24.4,30.25,WNW,292,0.0,0.0,83,0.00,CLR,,0.00,WeatherDisplay:10.37,2013-04-15 09:58:00,
2013-04-15 06:03:00,29.1,24.6,30.25,WNW,292,0.0,0.0,83,0.00,CLR,,0.00,WeatherDisplay:10.37,2013-04-15 10:03:00,
2013-04-15 06:08:00,29.1,24.6,30.25,WNW,292,0.0,0.0,83,0.00,CLR,,0.00,WeatherDisplay:10.37,2013-04-15 10:08:00,
2013-04-15 06:13:00,29.1,24.6,30.25,WNW,292,0.0,0.0,83,0.00,CLR,,0.00,WeatherDisplay:10.37,2013-04-15 10:13:00,
2013-04-15 06:18:00,29.1,24.6,30.27,WNW,292,0.0,0.0,83,0.00,CLR,,0.00,WeatherDisplay:10.37,2013-04-15 10:18:00,
2013-04-15 06:23:00,29.1,24.6,30.27,WNW,292,0.0,0.0,83,0.00,CLR,,0.00,WeatherDisplay:10.37,2013-04-15 10:23:00,
2013-04-15 06:28:00,29.3,24.8,30.27,WNW,292,0.0,0.0,83,0.00,CLR,,0.00,WeatherDisplay:10.37,2013-04-15 10:28:00,
2013-04-15 06:33:00,29.3,24.8,30.27,WNW,292,0.0,0.0,83,0.00,CLR,,0.00,WeatherDisplay:10.37,2013-04-15 10:33:00,
2013-04-15 06:38:00,29.7,25.1,30.28,WNW,292,0.0,0.0,83,0.00,CLR,,0.00,WeatherDisplay:10.37,2013-04-15 10:38:00,
2013-04-15 06:43:00,29.7,25.1,30.28,WNW,292,0.0,0.0,83,0.00,CLR,,0.00,WeatherDisplay:10.37,2013-04-15 10:43:00,
2013-04-15 06:48:00,29.7,25.1,30.28,WNW,292,0.0,0.0,83,0.00,CLR,,0.00,WeatherDisplay:10.37,2013-04-15 10:48:00,
2013-04-15 06:53:00,30.0,25.5,30.28,WNW,292,0.0,0.0,83,0.00,CLR,,0.00,WeatherDisplay:10.37,2013-04-15 10:53:00,
2013-04-15 06:58:00,30.0,25.5,30.29,WNW,292,0.0,0.0,83,0.00,CLR,,0.00,WeatherDisplay:10.37,2013-04-15 10:58:00,
2013-04-15 07:03:00,30.4,26.1,30.29,WNW,292,0.0,0.0,84,0.00,CLR,,0.00,WeatherDisplay:10.37,2013-04-15 11:03:00,
2013-04-15 07:08:00,30.6,26.3,30.29,WNW,292,0.0,0.0,84,0.00,CLR,,0.00,WeatherDisplay:10.37,2013-04-15 11:08:00,
2013-04-15 07:13:00,31.1,26.8,30.29,WNW,292,0.0,0.0,84,0.00,CLR,,0.00,WeatherDisplay:10.37,2013-04-15 11:13:00,
2013-04-15 07:19:00,31.5,27.2,30.31,WNW,292,0.0,0.0,84,0.00,CLR,,0.00,WeatherDisplay:10.37,2013-04-15 11:19:00,
2013-04-15 07:24:00,31.5,27.2,30.31,WNW,292,0.0,0.0,84,0.00,CLR,,0.00,WeatherDisplay:10.37,2013-04-15 11:24:00,
2013-04-15 07:29:00,32.2,27.6,30.31,WNW,292,0.0,0.0,83,0.00,CLR,,0.00,WeatherDisplay:10.37,2013-04-15 11:29:00,
2013-04-15 07:34:00,32.4,27.8,30.31,WNW,292,0.0,0.0,83,0.00,CLR,,0.00,WeatherDisplay:10.37,2013-04-15 11:34:00,
2013-04-15 07:39:00,32.9,28.3,30.34,WNW,292,0.0,0.0,83,0.00,CLR,,0.00,WeatherDisplay:10.37,2013-04-15 11:39:00,
2013-04-15 07:44:00,33.3,28.7,30.34,WNW,292,0.0,0.0,83,0.00,CLR,,0.00,WeatherDisplay:10.37,2013-04-15 11:44:00,
2013-04-15 07:49:00,33.8,29.2,30.34,WNW,292,0.0,0.0,83,0.00,CLR,,0.00,WeatherDisplay:10.37,2013-04-15 11:49:00,
2013-04-15 07:54:00,34.3,29.7,30.34,WNW,292,0.0,0.0,83,0.00,CLR,,0.00,WeatherDisplay:10.37,2013-04-15 11:54:00,
2013-04-15 07:59:00,35.1,30.4,30.38,WNW,292,0.0,0.0,83,0.00,CLR,,0.00,WeatherDisplay:10.37,2013-04-15 11:59:00,
2013-04-15 08:04:00,35.8,31.1,30.38,NE,45,0.0,0.0,83,0.00,CLR,,0.00,WeatherDisplay:10.37,2013-04-15 12:04:00,
2013-04-15 08:09:00,36.5,31.5,30.38,East,90,0.1,0.0,82,0.00,CLR,,0.00,WeatherDisplay:10.37,2013-04-15 12:09:00,
2013-04-15 08:14:00,37.9,32.6,30.38,NE,45,0.7,2.3,81,0.00,CLR,,0.00,WeatherDisplay:10.37,2013-04-15 12:14:00,
2013-04-15 08:19:00,38.7,32.7,30.40,NE,45,1.1,3.5,79,0.00,CLR,,0.00,WeatherDisplay:10.37,2013-04-15 12:19:00,
2013-04-15 08:25:00,39.7,33.4,30.40,NE,45,1.1,2.3,78,0.00,CLR,,0.00,WeatherDisplay:10.37,2013-04-15 12:25:00,
2013-04-15 08:30:00,40.5,33.8,30.40,East,90,0.6,1.1,77,0.00,CLR,,0.00,WeatherDisplay:10.37,2013-04-15 12:30:00,
2013-04-15 08:35:00,41.2,33.9,30.40,NNE,22,1.1,3.5,75,0.00,CLR,,0.00,WeatherDisplay:10.37,2013-04-15 12:35:00,
2013-04-15 08:40:00,41.5,33.9,30.41,NE,45,1.6,0.0,74,0.00,CLR,,0.00,WeatherDisplay:10.37,2013-04-15 12:40:00,
2013-04-15 08:45:00,42.1,33.7,30.41,NE,45,1.7,2.3,72,0.00,CLR,,0.00,WeatherDisplay:10.37,2013-04-15 12:45:00,
2013-04-15 08:50:00,42.8,34.4,30.41,NW,315,1.5,2.3,72,0.00,CLR,,0.00,WeatherDisplay:10.37,2013-04-15 12:50:00,
2013-04-15 08:55:00,43.3,34.6,30.41,East,90,1.0,1.1,71,0.00,CLR,,0.00,WeatherDisplay:10.37,2013-04-15 12:55:00,
2013-04-15 09:01:00,43.7,34.6,30.41,NE,45,0.5,2.3,70,0.00,CLR,,0.00,WeatherDisplay:10.37,2013-04-15 13:01:00,
2013-04-15 09:06:00,44.1,34.5,30.41,NE,45,0.8,4.6,69,0.00,CLR,,0.00,WeatherDisplay:10.37,2013-04-15 13:06:00,
2013-04-15 09:11:00,44.1,34.5,30.41,SE,135,1.3,2.3,69,0.00,CLR,,0.00,WeatherDisplay:10.37,2013-04-15 13:11:00,
2013-04-15 09:17:00,44.4,34.5,30.40,NE,45,1.0,2.3,68,0.00,CLR,,0.00,WeatherDisplay:10.37,2013-04-15 13:17:00,
2013-04-15 09:22:00,45.0,34.3,30.40,NE,45,0.8,1.1,66,0.00,CLR,,0.00,WeatherDisplay:10.37,2013-04-15 13:22:00,
2013-04-15 09:27:00,45.3,34.6,30.40,SSE,158,1.1,4.6,66,0.00,CLR,,0.00,WeatherDisplay:10.37,2013-04-15 13:27:00,
2013-04-15 09:32:00,46.4,34.5,30.40,SW,225,1.7,4.6,63,0.00,CLR,,0.00,WeatherDisplay:10.37,2013-04-15 13:32:00,
2013-04-15 09:37:00,46.6,33.8,30.41,SW,225,1.8,2.3,61,0.00,CLR,,0.00,WeatherDisplay:10.37,2013-04-15 13:37:00,
2013-04-15 09:42:00,46.9,35.0,30.41,SSE,158,1.3,1.3,63,0.00,CLR,,0.00,WeatherDisplay:10.37,2013-04-15 13:42:00,
2013-04-15 09:48:00,48.0,35.2,30.41,East,90,1.1,1.1,61,0.00,CLR,,0.00,WeatherDisplay:10.37,2013-04-15 13:48:00,
2013-04-15 09:53:00,48.0,34.4,30.41,SSW,202,1.4,3.5,59,0.00,CLR,,0.00,WeatherDisplay:10.37,2013-04-15 13:53:00,
2013-04-15 09:58:00,48.6,34.9,30.42,ENE,68,1.0,0.0,59,0.00,CLR,,0.00,WeatherDisplay:10.37,2013-04-15 13:58:00,
2013-04-15 10:03:00,48.6,34.4,30.42,SSE,158,1.4,3.5,58,0.00,OVC,,0.00,WeatherDisplay:10.37,2013-04-15 14:03:00,
2013-04-15 10:08:00,48.4,34.7,30.42,ESE,112,1.6,1.6,59,0.00,OVC,,0.00,WeatherDisplay:10.37,2013-04-15 14:08:00,
2013-04-15 10:14:00,48.6,34.9,30.42,ESE,112,1.0,1.1,59,0.00,OVC,,0.00,WeatherDisplay:10.37,2013-04-15 14:14:00,
2013-04-15 10:19:00,48.6,34.4,30.42,SW,225,1.4,4.6,58,0.00,OVC,,0.00,WeatherDisplay:10.37,2013-04-15 14:19:00,
2013-04-15 10:24:00,48.9,34.8,30.42,NNE,22,2.0,2.3,58,0.00,OVC,,0.00,WeatherDisplay:10.37,2013-04-15 14:24:00,
2013-04-15 10:30:00,49.6,35.5,30.42,NNW,338,1.6,1.6,58,0.00,OVC,,0.00,WeatherDisplay:10.37,2013-04-15 14:30:00,
2013-04-15 10:35:00,50.2,35.5,30.42,South,180,2.0,3.5,57,0.00,OVC,,0.00,WeatherDisplay:10.37,2013-04-15 14:35:00,
2013-04-15 10:40:00,50.0,34.5,30.42,NNW,338,2.0,2.0,55,0.00,OVC,,0.00,WeatherDisplay:10.37,2013-04-15 14:40:00,
2013-04-15 10:45:00,50.5,35.4,30.42,ESE,112,1.6,2.3,56,0.00,OVC,,0.00,WeatherDisplay:10.37,2013-04-15 14:45:00,
2013-04-15 10:50:00,50.9,35.3,30.42,NE,45,1.5,0.0,55,0.00,OVC,,0.00,WeatherDisplay:10.37,2013-04-15 14:50:00,
2013-04-15 10:57:00,50.9,35.3,30.42,NE,45,1.4,3.5,55,0.00,OVC,,0.00,WeatherDisplay:10.37,2013-04-15 14:57:00,
2013-04-15 11:02:00,51.1,35.5,30.42,SW,225,1.7,2.4,55,0.00,OVC,,0.00,WeatherDisplay:10.37,2013-04-15 15:02:00,
2013-04-15 11:07:00,50.7,35.1,30.42,ESE,112,1.6,3.5,55,0.00,OVC,,0.00,WeatherDisplay:10.37,2013-04-15 15:07:00,
2013-04-15 11:12:00,51.3,36.1,30.42,ENE,68,1.8,4.6,56,0.00,OVC,,0.00,WeatherDisplay:10.37,2013-04-15 15:12:00,
2013-04-15 11:17:00,50.9,34.8,30.43,NNW,338,2.1,2.8,54,0.00,OVC,,0.00,WeatherDisplay:10.37,2013-04-15 15:17:00,
2013-04-15 11:22:00,50.9,34.8,30.43,South,180,2.0,2.0,54,0.00,OVC,,0.00,WeatherDisplay:10.37,2013-04-15 15:22:00,
2013-04-15 11:28:00,51.1,35.0,30.43,NE,45,1.7,1.7,54,0.00,OVC,,0.00,WeatherDisplay:10.37,2013-04-15 15:28:00,
2013-04-15 11:33:00,51.3,35.6,30.43,ESE,112,1.4,1.4,55,0.00,OVC,,0.00,WeatherDisplay:10.37,2013-04-15 15:33:00,
2013-04-15 11:38:00,52.0,36.8,30.41,WSW,248,1.7,1.7,56,0.00,OVC,,0.00,WeatherDisplay:10.37,2013-04-15 15:38:00,
2013-04-15 11:43:00,52.2,36.0,30.41,NNW,338,1.5,1.5,54,0.00,OVC,,0.00,WeatherDisplay:10.37,2013-04-15 15:43:00,
2013-04-15 11:48:00,52.0,34.4,30.41,ENE,68,1.8,2.3,51,0.00,OVC,,0.00,WeatherDisplay:10.37,2013-04-15 15:48:00,
2013-04-15 11:53:00,52.2,35.1,30.41,ENE,68,2.2,2.3,52,0.00,OVC,,0.00,WeatherDisplay:10.37,2013-04-15 15:53:00,
2013-04-15 11:58:00,52.2,35.1,30.39,SSE,158,2.1,5.8,52,0.00,OVC,,0.00,WeatherDisplay:10.37,2013-04-15 15:58:00,
2013-04-15 12:04:00,52.3,35.7,30.39,SSE,158,2.1,3.5,53,0.00,CLR,,0.00,WeatherDisplay:10.37,2013-04-15 16:04:00,
2013-04-15 12:09:00,52.3,35.7,30.39,SSE,158,2.1,3.5,53,0.00,CLR,,0.00,WeatherDisplay:10.37,2013-04-15 16:09:00,
2013-04-15 12:14:00,53.1,35.4,30.39,East,90,2.2,2.3,51,0.00,CLR,,0.00,WeatherDisplay:10.37,2013-04-15 16:14:00,
2013-04-15 12:19:00,53.2,35.6,30.39,East,90,2.2,2.3,51,0.00,CLR,,0.00,WeatherDisplay:10.37,2013-04-15 16:19:00,
2013-04-15 12:24:00,53.8,35.6,30.39,NE,45,2.5,3.5,50,0.00,CLR,,0.00,WeatherDisplay:10.37,2013-04-15 16:24:00,
2013-04-15 12:29:00,54.1,35.9,30.39,ENE,68,2.4,5.8,50,0.00,CLR,,0.00,WeatherDisplay:10.37,2013-04-15 16:29:00,
2013-04-15 12:34:00,54.3,35.5,30.39,NE,45,2.3,3.5,49,0.00,CLR,,0.00,WeatherDisplay:10.37,2013-04-15 16:34:00,
2013-04-15 12:39:00,54.3,35.0,30.40,NNE,22,2.3,3.5,48,0.00,CLR,,0.00,WeatherDisplay:10.37,2013-04-15 16:39:00,
2013-04-15 12:44:00,54.9,36.6,30.40,SE,135,1.7,2.3,50,0.00,CLR,,0.00,WeatherDisplay:10.37,2013-04-15 16:44:00,
2013-04-15 12:49:00,54.9,35.0,30.40,SE,135,1.8,2.3,47,0.00,CLR,,0.00,WeatherDisplay:10.37,2013-04-15 16:49:00,
2013-04-15 12:54:00,54.9,35.0,30.40,SW,225,1.4,2.3,47,0.00,CLR,,0.00,WeatherDisplay:10.37,2013-04-15 16:54:00,
2013-04-15 12:59:00,54.9,36.6,30.39,SSW,202,1.1,2.3,50,0.00,CLR,,0.00,WeatherDisplay:10.37,2013-04-15 16:59:00,
2013-04-15 13:04:00,55.6,36.2,30.39,SSE,158,1.6,5.4,48,0.00,CLR,,0.00,WeatherDisplay:10.37,2013-04-15 17:04:00,
2013-04-15 13:09:00,55.6,36.2,30.39,WNW,292,2.0,4.6,48,0.00,CLR,,0.00,WeatherDisplay:10.37,2013-04-15 17:09:00,
2013-04-15 13:14:00,55.8,36.4,30.39,SW,225,1.7,0.0,48,0.00,CLR,,0.00,WeatherDisplay:10.37,2013-04-15 17:14:00,
2013-04-15 13:19:00,56.1,36.1,30.38,SE,135,1.7,2.5,47,0.00,CLR,,0.00,WeatherDisplay:10.37,2013-04-15 17:19:00,
2013-04-15 13:21:00,56.3,36.3,30.38,SSE,158,2.1,5.8,47,0.00,CLR,,0.00,WeatherDisplay:10.37,2013-04-15 17:21:00,
2013-04-15 13:22:00,56.1,35.6,30.38,South,180,2.0,5.8,46,0.00,CLR,,0.00,WeatherDisplay:10.37,2013-04-15 17:22:00,
2013-04-15 13:23:00,56.1,35.6,30.38,South,180,2.0,5.8,46,0.00,CLR,,0.00,WeatherDisplay:10.37,2013-04-15 17:23:00,
2013-04-15 13:28:00,56.5,37.0,30.38,WNW,292,1.8,2.3,48,0.00,CLR,,0.00,WeatherDisplay:10.37,2013-04-15 17:28:00,
2013-04-15 13:32:00,56.8,37.3,30.38,SE,135,1.7,4.6,48,0.00,CLR,,0.00,WeatherDisplay:10.37,2013-04-15 17:32:00,
2013-04-15 13:34:00,57.0,36.4,30.38,ENE,68,2.0,4.6,46,0.00,CLR,,0.00,WeatherDisplay:10.37,2013-04-15 17:34:00,
2013-04-15 13:39:00,57.0,36.4,30.38,South,180,2.5,6.9,46,0.00,CLR,,0.00,WeatherDisplay:10.37,2013-04-15 17:39:00,
2013-04-15 13:45:00,57.0,36.4,30.38,South,180,2.2,4.6,46,0.00,CLR,,0.00,WeatherDisplay:10.37,2013-04-15 17:45:00,
2013-04-15 13:50:00,58.5,37.2,30.38,East,90,2.0,2.4,45,0.00,CLR,,0.00,WeatherDisplay:10.37,2013-04-15 17:50:00,
2013-04-15 13:55:00,59.5,37.6,30.38,WSW,248,2.1,2.3,44,0.00,CLR,,0.00,WeatherDisplay:10.37,2013-04-15 17:55:00,
2013-04-15 14:00:00,60.6,38.0,30.38,SSE,158,2.8,3.5,43,0.00,CLR,,0.00,WeatherDisplay:10.37,2013-04-15 18:00:00,
2013-04-15 14:05:00,60.6,37.4,30.38,SSE,158,2.6,4.6,42,0.00,CLR,,0.00,WeatherDisplay:10.37,2013-04-15 18:05:00,
2013-04-15 14:10:00,60.6,38.0,30.38,WSW,248,2.1,4.6,43,0.00,CLR,,0.00,WeatherDisplay:10.37,2013-04-15 18:10:00,
2013-04-15 14:15:00,60.6,37.4,30.38,NE,45,2.2,2.3,42,0.00,CLR,,0.00,WeatherDisplay:10.37,2013-04-15 18:15:00,
2013-04-15 14:20:00,60.1,36.9,30.38,SW,225,2.5,2.5,42,0.00,CLR,,0.00,WeatherDisplay:10.37,2013-04-15 18:20:00,
2013-04-15 14:25:00,60.3,37.7,30.38,SSW,202,2.3,6.0,43,0.00,CLR,,0.00,WeatherDisplay:10.37,2013-04-15 18:25:00,
2013-04-15 14:29:00,60.3,37.7,30.38,East,90,1.6,1.6,43,0.00,CLR,,0.00,WeatherDisplay:10.37,2013-04-15 18:29:00,
2013-04-15 14:30:00,60.3,37.7,30.38,ENE,68,1.7,1.7,43,0.00,CLR,,0.00,WeatherDisplay:10.37,2013-04-15 18:30:00,
2013-04-15 14:31:00,60.3,37.7,30.38,ENE,68,1.7,2.3,43,0.00,CLR,,0.00,WeatherDisplay:10.37,2013-04-15 18:31:00,
2013-04-15 14:34:00,60.1,37.5,30.38,East,90,1.3,1.3,43,0.00,CLR,,0.00,WeatherDisplay:10.37,2013-04-15 18:34:00,
2013-04-15 14:39:00,59.9,37.3,30.38,West,270,2.0,2.3,43,0.00,CLR,,0.00,WeatherDisplay:10.37,2013-04-15 18:39:00,
2013-04-15 14:44:00,59.7,37.8,30.38,SE,135,2.1,2.3,44,0.00,CLR,,0.00,WeatherDisplay:10.37,2013-04-15 18:44:00,
2013-04-15 14:49:00,59.5,36.4,30.38,WSW,248,2.1,2.1,42,0.00,CLR,,0.00,WeatherDisplay:10.37,2013-04-15 18:49:00,
2013-04-15 14:54:00,59.4,37.4,30.38,SSW,202,2.5,4.6,44,0.00,CLR,,0.00,WeatherDisplay:10.37,2013-04-15 18:54:00,
2013-04-15 14:59:00,59.4,37.4,30.38,SW,225,2.5,3.5,44,0.00,CLR,,0.00,WeatherDisplay:10.37,2013-04-15 18:59:00,
2013-04-15 15:04:00,59.2,37.3,30.38,South,180,2.0,0.0,44,0.00,CLR,,0.00,WeatherDisplay:10.37,2013-04-15 19:04:00,
2013-04-15 15:09:00,59.4,37.4,30.38,ENE,68,1.6,2.3,44,0.00,CLR,,0.00,WeatherDisplay:10.37,2013-04-15 19:09:00,
2013-04-15 15:14:00,59.4,37.4,30.38,SSE,158,1.8,0.0,44,0.00,CLR,,0.00,WeatherDisplay:10.37,2013-04-15 19:14:00,
2013-04-15 15:19:00,59.4,36.8,30.36,SSW,202,1.5,1.5,43,0.00,CLR,,0.00,WeatherDisplay:10.37,2013-04-15 19:19:00,
2013-04-15 15:24:00,59.2,37.3,30.36,South,180,1.3,2.3,44,0.00,CLR,,0.00,WeatherDisplay:10.37,2013-04-15 19:24:00,
2013-04-15 15:29:00,59.0,35.9,30.36,ENE,68,1.8,3.5,42,0.00,CLR,,0.00,WeatherDisplay:10.37,2013-04-15 19:29:00,
2013-04-15 15:34:00,58.5,36.0,30.36,SE,135,2.0,2.3,43,0.00,CLR,,0.00,WeatherDisplay:10.37,2013-04-15 19:34:00,
2013-04-15 15:39:00,58.5,36.0,30.35,SE,135,1.5,2.3,43,0.00,CLR,,0.00,WeatherDisplay:10.37,2013-04-15 19:39:00,
2013-04-15 15:44:00,58.1,35.7,30.35,NE,45,2.0,4.6,43,0.00,CLR,,0.00,WeatherDisplay:10.37,2013-04-15 19:44:00,
2013-04-15 15:50:00,57.9,36.1,30.35,East,90,1.7,1.7,44,0.00,CLR,,0.00,WeatherDisplay:10.37,2013-04-15 19:50:00,
2013-04-15 15:55:00,57.9,36.7,30.35,East,90,1.5,2.3,45,0.00,CLR,,0.00,WeatherDisplay:10.37,2013-04-15 19:55:00,
2013-04-15 15:57:00,58.1,36.3,30.35,East,90,1.3,2.3,44,0.00,CLR,,0.00,WeatherDisplay:10.37,2013-04-15 19:57:00,
2013-04-15 16:02:00,57.9,36.7,30.35,SSE,158,1.7,4.6,45,0.00,CLR,,0.00,WeatherDisplay:10.37,2013-04-15 20:02:00,
2013-04-15 16:05:00,58.1,36.9,30.35,SE,135,2.0,3.5,45,0.00,CLR,,0.00,WeatherDisplay:10.37,2013-04-15 20:05:00,
2013-04-15 16:06:00,58.1,36.9,30.35,SSE,158,2.0,3.5,45,0.00,CLR,,0.00,WeatherDisplay:10.37,2013-04-15 20:06:00,
2013-04-15 16:08:00,58.1,36.9,30.35,SW,225,2.2,2.2,45,0.00,CLR,,0.00,WeatherDisplay:10.37,2013-04-15 20:08:00,
2013-04-15 16:13:00,58.8,36.9,30.35,SW,225,2.1,5.8,44,0.00,CLR,,0.00,WeatherDisplay:10.37,2013-04-15 20:13:00,
2013-04-15 16:18:00,59.2,36.7,30.34,SE,135,2.6,2.6,43,0.00,CLR,,0.00,WeatherDisplay:10.37,2013-04-15 20:18:00,
2013-04-15 16:23:00,59.0,36.5,30.34,SSW,202,2.6,4.6,43,0.00,CLR,,0.00,WeatherDisplay:10.37,2013-04-15 20:23:00,
2013-04-15 16:28:00,59.0,37.7,30.34,SW,225,2.0,2.3,45,0.00,CLR,,0.00,WeatherDisplay:10.37,2013-04-15 20:28:00,
2013-04-15 16:33:00,59.0,36.5,30.34,East,90,1.8,3.5,43,0.00,CLR,,0.00,WeatherDisplay:10.37,2013-04-15 20:33:00,
2013-04-15 16:38:00,59.4,36.8,30.34,East,90,2.1,3.5,43,0.00,CLR,,0.00,WeatherDisplay:10.37,2013-04-15 20:38:00,
2013-04-15 16:43:00,59.2,36.7,30.34,NNW,338,1.7,1.7,43,0.00,CLR,,0.00,WeatherDisplay:10.37,2013-04-15 20:43:00,
2013-04-15 16:48:00,59.2,36.7,30.34,NE,45,1.6,1.6,43,0.00,CLR,,0.00,WeatherDisplay:10.37,2013-04-15 20:48:00,
2013-04-15 16:53:00,59.0,35.9,30.34,SE,135,2.0,4.6,42,0.00,CLR,,0.00,WeatherDisplay:10.37,2013-04-15 20:53:00,
2013-04-15 16:58:00,58.8,35.2,30.34,SSW,202,2.3,4.6,41,0.00,CLR,,0.00,WeatherDisplay:10.37,2013-04-15 20:58:00,
2013-04-15 17:03:00,58.8,36.4,30.34,SW,225,2.1,3.5,43,0.00,CLR,,0.00,WeatherDisplay:10.37,2013-04-15 21:03:00,
2013-04-15 17:08:00,58.6,36.8,30.34,ESE,112,2.0,3.5,44,0.00,CLR,,0.00,WeatherDisplay:10.37,2013-04-15 21:08:00,
2013-04-15 17:13:00,58.8,36.9,30.34,SSW,202,2.2,2.3,44,0.00,CLR,,0.00,WeatherDisplay:10.37,2013-04-15 21:13:00,
2013-04-15 17:18:00,58.3,35.9,30.34,WSW,248,1.1,0.0,43,0.00,CLR,,0.00,WeatherDisplay:10.37,2013-04-15 21:18:00,
2013-04-15 17:23:00,57.9,35.5,30.34,ENE,68,0.8,1.1,43,0.00,CLR,,0.00,WeatherDisplay:10.37,2013-04-15 21:23:00,
2013-04-15 17:28:00,57.9,36.1,30.34,SSE,158,1.5,3.5,44,0.00,CLR,,0.00,WeatherDisplay:10.37,2013-04-15 21:28:00,
2013-04-15 17:33:00,58.1,36.9,30.34,SW,225,2.1,2.3,45,0.00,CLR,,0.00,WeatherDisplay:10.37,2013-04-15 21:33:00,
2013-04-15 17:38:00,58.1,36.3,30.34,ENE,68,1.5,1.5,44,0.00,CLR,,0.00,WeatherDisplay:10.37,2013-04-15 21:38:00,
2013-04-15 17:43:00,57.4,36.2,30.34,SW,225,1.1,1.1,45,0.00,CLR,,0.00,WeatherDisplay:10.37,2013-04-15 21:43:00,
2013-04-15 17:48:00,57.4,36.8,30.34,South,180,1.1,1.1,46,0.00,CLR,,0.00,WeatherDisplay:10.37,2013-04-15 21:48:00,
2013-04-15 17:53:00,57.2,36.6,30.34,SW,225,1.3,3.5,46,0.00,CLR,,0.00,WeatherDisplay:10.37,2013-04-15 21:53:00,
2013-04-15 17:58:00,56.8,36.3,30.35,SW,225,1.4,2.3,46,0.00,CLR,,0.00,WeatherDisplay:10.37,2013-04-15 21:58:00,
2013-04-15 18:03:00,56.7,36.1,30.35,SW,225,1.1,1.1,46,0.00,CLR,,0.00,WeatherDisplay:10.37,2013-04-15 22:03:00,
2013-04-15 18:08:00,56.3,36.3,30.35,East,90,1.3,0.0,47,0.00,CLR,,0.00,WeatherDisplay:10.37,2013-04-15 22:08:00,
2013-04-15 18:13:00,55.9,36.0,30.35,NE,45,1.1,3.5,47,0.00,CLR,,0.00,WeatherDisplay:10.37,2013-04-15 22:13:00,
2013-04-15 18:18:00,55.6,35.7,30.35,East,90,0.7,0.0,47,0.00,CLR,,0.00,WeatherDisplay:10.37,2013-04-15 22:18:00,
2013-04-15 18:23:00,55.0,35.7,30.35,SSW,202,1.0,2.3,48,0.00,CLR,,0.00,WeatherDisplay:10.37,2013-04-15 22:23:00,
2013-04-15 18:28:00,54.9,36.0,30.35,North,0,1.8,5.8,49,0.00,CLR,,0.00,WeatherDisplay:10.37,2013-04-15 22:28:00,
2013-04-15 18:33:00,54.5,36.2,30.35,WSW,248,2.0,2.0,50,0.00,CLR,,0.00,WeatherDisplay:10.37,2013-04-15 22:33:00,
2013-04-15 18:38:00,54.1,36.4,30.34,ESE,112,1.8,2.3,51,0.00,CLR,,0.00,WeatherDisplay:10.37,2013-04-15 22:38:00,
2013-04-15 18:43:00,53.8,36.1,30.34,SE,135,1.8,3.5,51,0.00,CLR,,0.00,WeatherDisplay:10.37,2013-04-15 22:43:00,
2013-04-15 18:48:00,53.4,36.2,30.34,SW,225,1.5,2.3,52,0.00,CLR,,0.00,WeatherDisplay:10.37,2013-04-15 22:48:00,
2013-04-15 18:53:00,52.9,36.2,30.34,WNW,292,1.4,1.4,53,0.00,CLR,,0.00,WeatherDisplay:10.37,2013-04-15 22:53:00,
2013-04-15 18:58:00,52.9,36.2,30.30,South,180,2.0,4.6,53,0.00,CLR,,0.00,WeatherDisplay:10.37,2013-04-15 22:58:00,
2013-04-15 19:03:00,52.7,36.0,30.30,SW,225,2.5,2.5,53,0.00,CLR,,0.00,WeatherDisplay:10.37,2013-04-15 23:03:00,
2013-04-15 19:08:00,52.2,36.0,30.30,NE,45,2.0,3.5,54,0.00,CLR,,0.00,WeatherDisplay:10.37,2013-04-15 23:08:00,
2013-04-15 19:13:00,51.6,36.0,30.30,SSW,202,1.3,2.3,55,0.00,CLR,,0.00,WeatherDisplay:10.37,2013-04-15 23:13:00,
2013-04-15 19:18:00,51.1,35.5,30.32,SSW,202,1.0,1.1,55,0.00,CLR,,0.00,WeatherDisplay:10.37,2013-04-15 23:18:00,
2013-04-15 19:23:00,50.7,35.6,30.32,SW,225,1.3,1.3,56,0.00,CLR,,0.00,WeatherDisplay:10.37,2013-04-15 23:23:00,
2013-04-15 19:28:00,50.2,35.1,30.32,NW,315,0.9,3.5,56,0.00,CLR,,0.00,WeatherDisplay:10.37,2013-04-15 23:28:00,
2013-04-15 19:33:00,50.2,35.5,30.32,SSE,158,1.0,2.3,57,0.00,CLR,,0.00,WeatherDisplay:10.37,2013-04-15 23:33:00,
2013-04-15 19:39:00,49.8,35.2,30.32,SSW,202,1.0,1.1,57,0.00,CLR,,0.00,WeatherDisplay:10.37,2013-04-15 23:39:00,
2013-04-15 19:44:00,48.9,35.2,30.32,East,90,1.0,3.5,59,0.00,CLR,,0.00,WeatherDisplay:10.37,2013-04-15 23:44:00,
2013-04-15 19:49:00,49.1,35.8,30.32,SSW,202,0.9,2.3,60,0.00,CLR,,0.00,WeatherDisplay:10.37,2013-04-15 23:49:00,
2013-04-15 19:54:00,48.6,34.9,30.32,South,180,1.1,1.1,59,0.00,CLR,,0.00,WeatherDisplay:10.37,2013-04-15 23:54:00,
2013-04-15 19:59:00,48.6,34.9,30.32,NNE,22,1.4,2.3,59,0.00,CLR,,0.00,WeatherDisplay:10.37,2013-04-15 23:59:00,
2013-04-15 20:04:00,48.2,35.0,30.32,South,180,1.3,1.3,60,0.00,CLR,,0.00,WeatherDisplay:10.37,2013-04-16 00:04:00,
2013-04-15 20:09:00,47.8,34.6,30.32,WSW,248,1.1,2.3,60,0.00,CLR,,0.00,WeatherDisplay:10.37,2013-04-16 00:09:00,
2013-04-15 20:14:00,47.7,34.9,30.32,South,180,1.1,2.3,61,0.00,CLR,,0.00,WeatherDisplay:10.37,2013-04-16 00:14:00,
2013-04-15 20:19:00,47.7,35.3,30.31,WNW,292,1.1,1.5,62,0.00,CLR,,0.00,WeatherDisplay:10.37,2013-04-16 00:19:00,
2013-04-15 20:24:00,47.3,35.3,30.31,South,180,2.0,2.3,63,0.00,CLR,,0.00,WeatherDisplay:10.37,2013-04-16 00:24:00,
2013-04-15 20:29:00,47.3,34.9,30.31,SE,135,2.0,2.3,62,0.00,CLR,,0.00,WeatherDisplay:10.37,2013-04-16 00:29:00,
2013-04-15 20:34:00,47.1,34.8,30.31,SW,225,1.4,1.4,62,0.00,CLR,,0.00,WeatherDisplay:10.37,2013-04-16 00:34:00,
2013-04-15 20:39:00,46.9,35.0,30.38,SSW,202,1.1,1.1,63,0.00,CLR,,0.00,WeatherDisplay:10.37,2013-04-16 00:39:00,
2013-04-15 20:44:00,46.8,34.8,30.38,SW,225,1.0,1.1,63,0.00,CLR,,0.00,WeatherDisplay:10.37,2013-04-16 00:44:00,
2013-04-15 20:49:00,46.6,34.7,30.38,NNE,22,1.0,2.3,63,0.00,CLR,,0.00,WeatherDisplay:10.37,2013-04-16 00:49:00,
2013-04-15 20:54:00,46.6,34.7,30.38,SSE,158,1.8,3.0,63,0.00,CLR,,0.00,WeatherDisplay:10.37,2013-04-16 00:54:00,
2013-04-15 20:59:00,46.4,34.9,30.40,SSW,202,1.6,1.6,64,0.00,CLR,,0.00,WeatherDisplay:10.37,2013-04-16 00:59:00,
2013-04-15 21:04:00,46.2,34.7,30.40,SSE,158,1.0,2.3,64,0.00,CLR,,0.00,WeatherDisplay:10.37,2013-04-16 01:04:00,
2013-04-15 21:09:00,45.9,34.4,30.40,South,180,1.4,4.6,64,0.00,CLR,,0.00,WeatherDisplay:10.37,2013-04-16 01:09:00,
2013-04-15 21:14:00,45.7,34.2,30.40,SSE,158,1.7,1.7,64,0.00,CLR,,0.00,WeatherDisplay:10.37,2013-04-16 01:14:00,
2013-04-15 21:19:00,45.9,34.4,30.41,SW,225,2.1,4.6,64,0.00,CLR,,0.00,WeatherDisplay:10.37,2013-04-16 01:19:00,
2013-04-15 21:24:00,45.7,33.8,30.41,South,180,2.3,2.3,63,0.00,CLR,,0.00,WeatherDisplay:10.37,2013-04-16 01:24:00,
2013-04-15 21:29:00,45.7,33.8,30.41,WSW,248,2.0,2.3,63,0.00,CLR,,0.00,WeatherDisplay:10.37,2013-04-16 01:29:00,
2013-04-15 21:34:00,45.5,33.6,30.41,SSW,202,1.7,1.7,63,0.00,CLR,,0.00,WeatherDisplay:10.37,2013-04-16 01:34:00,
2013-04-15 21:39:00,45.3,33.5,30.41,SW,225,1.3,5.8,63,0.00,CLR,,0.00,WeatherDisplay:10.37,2013-04-16 01:39:00,
2013-04-15 21:44:00,45.1,33.7,30.41,SW,225,1.5,2.3,64,0.00,CLR,,0.00,WeatherDisplay:10.37,2013-04-16 01:44:00,
2013-04-15 21:49:00,45.1,33.3,30.41,SW,225,1.8,5.8,63,0.00,CLR,,0.00,WeatherDisplay:10.37,2013-04-16 01:49:00,
2013-04-15 21:54:00,45.0,33.5,30.41,SSE,158,1.3,2.3,64,0.00,CLR,,0.00,WeatherDisplay:10.37,2013-04-16 01:54:00,
2013-04-15 21:59:00,44.8,33.3,30.42,SSE,158,1.1,2.3,64,0.00,CLR,,0.00,WeatherDisplay:10.37,2013-04-16 01:59:00,
2013-04-15 22:04:00,44.4,33.0,30.42,NNE,22,1.6,4.6,64,0.00,CLR,,0.00,WeatherDisplay:10.37,2013-04-16 02:04:00,
2013-04-15 22:09:00,44.4,33.0,30.42,ESE,112,1.7,4.6,64,0.00,CLR,,0.00,WeatherDisplay:10.37,2013-04-16 02:09:00,
2013-04-15 22:14:00,44.1,32.7,30.42,SSE,158,1.0,2.6,64,0.00,CLR,,0.00,WeatherDisplay:10.37,2013-04-16 02:14:00,
2013-04-15 22:19:00,44.1,32.7,30.42,ENE,68,0.9,6.9,64,0.00,CLR,,0.00,WeatherDisplay:10.37,2013-04-16 02:19:00,
2013-04-15 22:24:00,43.9,32.5,30.42,SE,135,1.7,1.7,64,0.00,CLR,,0.00,WeatherDisplay:10.37,2013-04-16 02:24:00,
2013-04-15 22:29:00,44.1,32.7,30.42,South,180,1.6,2.3,64,0.00,CLR,,0.00,WeatherDisplay:10.37,2013-04-16 02:29:00,
2013-04-15 22:34:00,43.7,32.3,30.42,NW,315,1.0,0.0,64,0.00,CLR,,0.00,WeatherDisplay:10.37,2013-04-16 02:34:00,
2013-04-15 22:39:00,43.3,32.0,30.42,SE,135,0.7,1.1,64,0.00,CLR,,0.00,WeatherDisplay:10.37,2013-04-16 02:39:00,
2013-04-15 22:44:00,43.2,32.2,30.42,SSW,202,0.8,1.1,65,0.00,CLR,,0.00,WeatherDisplay:10.37,2013-04-16 02:44:00,
2013-04-15 22:49:00,43.0,32.4,30.42,South,180,1.3,3.5,66,0.00,CLR,,0.00,WeatherDisplay:10.37,2013-04-16 02:49:00,
2013-04-15 22:54:00,43.0,32.4,30.42,SSW,202,1.6,3.5,66,0.00,CLR,,0.00,WeatherDisplay:10.37,2013-04-16 02:54:00,
2013-04-15 22:59:00,42.8,32.2,30.42,SSW,202,1.6,2.3,66,0.00,CLR,,0.00,WeatherDisplay:10.37,2013-04-16 02:59:00,
2013-04-15 23:04:00,42.8,32.2,30.42,SW,225,1.7,4.6,66,0.00,CLR,,0.00,WeatherDisplay:10.37,2013-04-16 03:04:00,
2013-04-15 23:09:00,42.6,32.0,30.42,SW,225,2.0,2.3,66,0.00,CLR,,0.00,WeatherDisplay:10.37,2013-04-16 03:09:00,
2013-04-15 23:14:00,42.3,31.7,30.42,SW,225,1.7,2.3,66,0.00,CLR,,0.00,WeatherDisplay:10.37,2013-04-16 03:14:00,
2013-04-15 23:19:00,42.3,31.7,30.42,SSW,202,1.6,2.3,66,0.00,CLR,,0.00,WeatherDisplay:10.37,2013-04-16 03:19:00,
2013-04-15 23:24:00,42.1,31.5,30.42,South,180,1.5,2.3,66,0.00,CLR,,0.00,WeatherDisplay:10.37,2013-04-16 03:24:00,
2013-04-15 23:29:00,42.1,31.5,30.42,SSW,202,1.4,2.3,66,0.00,CLR,,0.00,WeatherDisplay:10.37,2013-04-16 03:29:00,
2013-04-15 23:34:00,41.9,31.7,30.42,WSW,248,1.3,1.3,67,0.00,CLR,,0.00,WeatherDisplay:10.37,2013-04-16 03:34:00,
2013-04-15 23:39:00,41.5,31.4,30.41,SW,225,1.1,1.1,67,0.00,CLR,,0.00,WeatherDisplay:10.37,2013-04-16 03:39:00,
2013-04-15 23:44:00,41.4,31.6,30.41,SSW,202,1.6,1.6,68,0.00,CLR,,0.00,WeatherDisplay:10.37,2013-04-16 03:44:00,
2013-04-15 23:49:00,41.4,31.6,30.41,SSE,158,1.4,2.3,68,0.00,CLR,,0.00,WeatherDisplay:10.37,2013-04-16 03:49:00,
2013-04-15 23:54:00,41.0,31.2,30.41,SE,135,1.1,1.1,68,0.00,CLR,,0.00,WeatherDisplay:10.37,2013-04-16 03:54:00,
2013-04-15 23:59:00,41.0,31.2,30.37,South,180,1.0,1.1,68,0.00,CLR,,0.00,WeatherDisplay:10.37,2013-04-16 03:59:00,